Time;durP1;ratioP1;P1;durP2;ratioP2;P2;SDS_P1;SDS_P2;PMS_P1;PMS_P2;Temp;Humidity;BMP_temperature;BMP_pressure;BME280_temperature;BME280_humidity;BME280_pressure;Samples;Min_cycle;Max_cycle;Signal;HPM_P1;HPM_P2
2022/01/17 00:00:36;;;;;;;;;;;;;;;-144.99;94.25;52700.84;4955254;28;19938;-56
2022/01/17 00:03:03;;;;;;;;;;;;;;;-144.99;93.97;52656.00;4964636;28;19964;-57
2022/01/17 00:05:30;;;;;;;;;;;;;;;-144.99;94.20;52639.69;4966329;28;20325;-57
2022/01/17 00:07:58;;;;;;;;;;;;;;;-144.99;93.64;52696.78;4966140;28;20247;-56
2022/01/17 00:10:24;;;;;;;;;;;;;;;-144.99;93.59;52668.22;4965400;28;19933;-56
2022/01/17 00:12:52;;;;;;;;;;;;;;;-144.99;93.26;52639.69;4965946;28;20367;-56
2022/01/17 00:15:23;;;;;;;;;;;;;;;-144.99;92.76;52660.09;4966126;28;19930;-58
2022/01/17 00:17:54;;;;;;;;;;;;;;;-144.99;92.03;52668.22;4966924;28;19973;-58
2022/01/17 00:20:25;;;;;;;;;;;;;;;-144.99;91.16;52706.97;4969358;28;20033;-58
2022/01/17 00:22:52;;;;;;;;;;;;;;;-144.99;91.45;52696.78;4968972;28;20223;-57
2022/01/17 00:25:20;;;;;;;;;;;;;;;-144.99;90.88;52647.84;4967739;28;20349;-59
2022/01/17 00:27:47;;;;;;;;;;;;;;;-144.99;90.77;52668.22;4966289;28;20214;-59
2022/01/17 00:30:14;;;;;;;;;;;;;;;-144.99;90.41;52680.47;4969279;28;20445;-57
2022/01/17 00:32:40;;;;;;;;;;;;;;;-144.99;90.41;52700.84;4969678;28;19933;-57
2022/01/17 00:35:07;;;;;;;;;;;;;;;-144.99;90.56;52680.47;4968799;28;19933;-61
2022/01/17 00:37:33;;;;;;;;;;;;;;;-144.99;89.92;52633.59;4970122;28;19949;-62
2022/01/17 00:39:59;;;;;;;;;;;;;;;-144.99;89.68;52664.16;4969051;28;20310;-62
2022/01/17 00:42:27;;;;;;;;;;;;;;;-144.99;89.91;52660.09;4969425;28;19927;-61
2022/01/17 00:44:53;;;;;;;;;;;;;;;-144.99;90.30;52662.13;4969198;28;19933;-61
2022/01/17 00:47:22;;;;;;;;;;;;;;;-144.99;89.93;52688.63;4968657;28;20294;-61
2022/01/17 00:49:48;;;;;;;;;;;;;;;-144.99;90.04;52668.22;4969079;28;20016;-61
2022/01/17 00:52:14;;;;;;;;;;;;;;;-144.99;90.15;52598.94;4969214;28;19926;-61
2022/01/17 00:54:41;;;;;;;;;;;;;;;-144.99;89.86;52660.09;4968242;28;19934;-61
2022/01/17 00:57:07;;;;;;;;;;;;;;;-144.99;89.86;52700.84;4968717;28;20001;-60
2022/01/17 00:59:35;;;;;;;;;;;;;;;-144.99;90.16;52647.84;4965521;28;19954;-58
2022/01/17 01:02:01;;;;;;;;;;;;;;;-144.99;89.56;52623.38;4959709;28;19926;-60
2022/01/17 01:04:27;;;;;;;;;;;;;;;-144.99;89.87;52651.94;4968308;28;19926;-60
2022/01/17 01:06:54;;;;;;;;;;;;;;;-144.99;89.79;52639.69;4968820;28;19930;-60
2022/01/17 01:09:20;;;;;;;;;;;;;;;-144.99;89.99;52676.38;4968413;28;20397;-60
2022/01/17 01:11:46;;;;;;;;;;;;;;;-144.99;90.27;52674.34;4968900;28;19930;-59
2022/01/17 01:14:13;;;;;;;;;;;;;;;-144.99;90.06;52672.31;4969056;28;19938;-60
2022/01/17 01:16:42;;;;;;;;;;;;;;;-144.99;90.04;52696.78;4969169;28;19930;-60
2022/01/17 01:19:26;;;;;;;;;;;;;;;-144.99;89.67;52651.94;4968177;28;19944;-60
2022/01/17 01:30:27;;;;;;;;;;;;;;;-144.99;90.69;52668.22;4964917;28;19926;-63
2022/01/17 01:32:57;;;;;;;;;;;;;;;-144.99;90.79;52680.47;4968765;28;19933;-63
2022/01/17 01:35:26;;;;;;;;;;;;;;;-144.99;90.54;52678.44;4968134;28;20026;-63
2022/01/17 01:37:53;;;;;;;;;;;;;;;-144.99;90.74;52641.72;4968628;28;19927;-62
2022/01/17 01:40:20;;;;;;;;;;;;;;;-144.99;90.18;52692.69;4967839;28;19930;-63
2022/01/17 01:42:47;;;;;;;;;;;;;;;-144.99;89.95;52662.13;4968752;28;19934;-64
2022/01/17 01:45:14;;;;;;;;;;;;;;;-144.99;90.11;52668.22;4968908;28;19933;-59
2022/01/17 01:47:41;;;;;;;;;;;;;;;-144.99;89.95;52688.63;4968795;28;20012;-60
2022/01/17 01:50:10;;;;;;;;;;;;;;;-144.99;89.78;52651.94;4968331;28;19926;-59
2022/01/17 01:52:37;;;;;;;;;;;;;;;-144.99;90.16;52688.63;4968193;28;19994;-60
2022/01/17 01:55:04;;;;;;;;;;;;;;;-144.99;90.39;52647.84;4968141;28;20275;-59
2022/01/17 01:57:30;;;;;;;;;;;;;;;-144.99;90.35;52684.53;4964766;28;19927;-59
2022/01/17 01:59:57;;;;;;;;;;;;;;;-144.99;90.42;52639.69;4962252;28;19927;-59
2022/01/17 02:02:23;;;;;;;;;;;;;;;-144.99;90.84;52668.22;4949010;28;19933;-60
2022/01/17 02:04:49;;;;;;;;;;;;;;;-144.99;90.88;52643.78;4967852;28;19930;-60
2022/01/17 02:07:17;;;;;;;;;;;;;;;-144.99;91.30;52692.69;4968217;28;19930;-59
2022/01/17 02:09:43;;;;;;;;;;;;;;;-144.99;91.67;52656.00;4967840;28;19926;-59
2022/01/17 02:12:10;;;;;;;;;;;;;;;-144.99;91.75;52656.00;4967987;28;20483;-60
2022/01/17 02:14:36;;;;;;;;;;;;;;;-144.99;92.17;52651.94;4968030;28;20053;-59
2022/01/17 02:17:03;;;;;;;;;;;;;;;-144.99;93.09;52690.66;4967755;28;19926;-59
2022/01/17 02:19:31;;;;;;;;;;;;;;;-144.99;93.07;52651.94;4968249;28;19927;-59
2022/01/17 02:21:58;;;;;;;;;;;;;;;-144.99;93.24;52656.00;4968316;28;19948;-61
2022/01/17 02:24:25;;;;;;;;;;;;;;;-144.99;93.87;52700.84;4966335;28;20297;-64
2022/01/17 02:26:52;;;;;;;;;;;;;;;-144.99;93.59;52684.53;4967687;28;19926;-64
2022/01/17 02:29:19;;;;;;;;;;;;;;;-144.99;94.56;52688.63;4968099;28;19949;-61
2022/01/17 02:31:46;;;;;;;;;;;;;;;-144.99;93.61;52678.44;4967381;28;20000;-59
2022/01/17 02:34:13;;;;;;;;;;;;;;;-144.99;93.41;52643.78;4967595;28;19926;-59
2022/01/17 02:36:40;;;;;;;;;;;;;;;-144.99;93.31;52660.09;4967656;28;19942;-56
2022/01/17 02:39:08;;;;;;;;;;;;;;;-144.99;92.89;52688.63;4967782;28;20164;-58
2022/01/17 02:41:35;;;;;;;;;;;;;;;-144.99;92.76;52660.09;4967121;28;19930;-58
2022/01/17 02:44:02;;;;;;;;;;;;;;;-144.99;92.72;52678.44;4967431;28;20280;-58
2022/01/17 02:46:29;;;;;;;;;;;;;;;-144.99;92.56;52649.88;4967715;28;19933;-58
2022/01/17 02:48:56;;;;;;;;;;;;;;;-144.99;92.62;52668.22;4967319;28;19930;-57
2022/01/17 02:51:23;;;;;;;;;;;;;;;-144.99;92.64;52660.09;4967773;28;20375;-60
2022/01/17 02:53:49;;;;;;;;;;;;;;;-144.99;92.52;52664.16;4966823;28;19926;-59
2022/01/17 02:56:17;;;;;;;;;;;;;;;-144.99;92.65;52684.53;4964785;28;19933;-58
2022/01/17 02:58:43;;;;;;;;;;;;;;;-144.99;92.53;52733.47;4965083;28;19926;-61
2022/01/17 03:01:12;;;;;;;;;;;;;;;-144.99;92.01;52664.16;4967526;28;19953;-60
2022/01/17 03:03:40;;;;;;;;;;;;;;;-144.99;92.56;52662.13;4967427;28;19926;-59
2022/01/17 03:06:07;;;;;;;;;;;;;;;-144.99;93.22;52668.22;4967618;28;20248;-61
2022/01/17 03:08:34;;;;;;;;;;;;;;;-144.99;92.77;52668.22;4967522;28;19926;-58
2022/01/17 03:11:02;;;;;;;;;;;;;;;-144.99;93.02;52692.69;4967142;28;20344;-60
2022/01/17 03:13:32;;;;;;;;;;;;;;;-144.99;93.24;52647.84;4967101;28;19933;-59
2022/01/17 03:15:59;;;;;;;;;;;;;;;-144.99;93.19;52643.78;4967185;28;19926;-59
2022/01/17 03:18:27;;;;;;;;;;;;;;;-144.99;93.99;52656.00;4967404;28;19987;-57
2022/01/17 03:20:54;;;;;;;;;;;;;;;-144.99;93.91;52700.84;4966722;28;19926;-59
2022/01/17 03:23:20;;;;;;;;;;;;;;;-144.99;94.15;52678.44;4966118;28;20408;-58
2022/01/17 03:25:46;;;;;;;;;;;;;;;-144.99;94.19;52639.69;4962779;28;19949;-58
2022/01/17 03:28:13;;;;;;;;;;;;;;;-144.99;93.80;52664.16;4967235;28;19926;-58
2022/01/17 03:30:41;;;;;;;;;;;;;;;-144.99;93.49;52676.38;4966937;28;20473;-59
2022/01/17 03:33:08;;;;;;;;;;;;;;;-144.99;94.36;52711.03;4966959;28;19926;-58
2022/01/17 03:35:36;;;;;;;;;;;;;;;-144.99;94.18;52656.00;4966520;28;20428;-58
2022/01/17 03:38:03;;;;;;;;;;;;;;;-144.99;93.61;52660.09;4967447;28;20039;-58
2022/01/17 03:40:29;;;;;;;;;;;;;;;-144.99;93.83;52660.09;4966861;28;19933;-59
2022/01/17 03:42:56;;;;;;;;;;;;;;;-144.99;94.15;52688.63;4966809;28;19930;-58
2022/01/17 03:45:22;;;;;;;;;;;;;;;-144.99;94.10;52656.00;4966511;28;19926;-60
2022/01/17 03:47:50;;;;;;;;;;;;;;;-144.99;94.25;52676.38;4966948;28;19927;-58
2022/01/17 03:50:18;;;;;;;;;;;;;;;-144.99;94.23;52668.22;4966351;28;19926;-59
2022/01/17 03:52:44;;;;;;;;;;;;;;;-144.99;93.95;52692.69;4966770;28;19926;-59
2022/01/17 03:55:12;;;;;;;;;;;;;;;-144.99;94.17;52676.38;4966245;28;20198;-60
2022/01/17 03:57:38;;;;;;;;;;;;;;;-144.99;93.75;52676.38;4966552;28;19930;-59
2022/01/17 04:00:05;;;;;;;;;;;;;;;-144.99;94.48;52643.78;4959742;28;20401;-59
2022/01/17 04:02:32;;;;;;;;;;;;;;;-144.99;94.51;52647.84;4947416;28;19938;-59
2022/01/17 04:04:59;;;;;;;;;;;;;;;-144.99;94.45;52668.22;4953323;28;19933;-59
2022/01/17 04:07:26;;;;;;;;;;;;;;;-144.99;94.80;52690.66;4966507;28;19959;-59
2022/01/17 04:09:52;;;;;;;;;;;;;;;-144.99;94.83;52639.69;4954112;28;19986;-59
2022/01/17 04:12:19;;;;;;;;;;;;;;;-144.99;94.97;52702.88;4966596;28;19956;-60
2022/01/17 04:14:46;;;;;;;;;;;;;;;-144.99;95.36;52684.53;4973512;28;20408;-60
2022/01/17 04:17:12;;;;;;;;;;;;;;;-144.99;95.33;52696.78;4957110;28;19926;-60
2022/01/17 04:19:41;;;;;;;;;;;;;;;-144.99;95.48;52688.63;4954653;28;20381;-60
2022/01/17 04:22:10;;;;;;;;;;;;;;;-144.99;96.30;52672.31;4966425;28;20310;-60
2022/01/17 04:24:36;;;;;;;;;;;;;;;-144.99;96.02;52684.53;4965362;28;20052;-60
2022/01/17 04:27:03;;;;;;;;;;;;;;;-144.99;95.88;52692.69;4966192;28;20270;-60
2022/01/17 04:29:29;;;;;;;;;;;;;;;-144.99;96.20;52653.97;4966452;28;19926;-60
2022/01/17 04:31:55;;;;;;;;;;;;;;;-144.99;96.00;52651.94;4966065;28;19937;-60
2022/01/17 04:34:22;;;;;;;;;;;;;;;-144.99;96.29;52702.88;4966195;28;19933;-62
2022/01/17 04:36:48;;;;;;;;;;;;;;;-144.99;97.81;52688.63;4965837;28;19926;-59
2022/01/17 04:39:17;;;;;;;;;;;;;;;-144.99;97.83;52717.16;4965410;28;19933;-58
2022/01/17 04:41:43;;;;;;;;;;;;;;;-144.99;98.49;52660.09;4966039;28;19926;-58
2022/01/17 04:46:53;;;;;;;;;;;;;;;-144.99;100.00;52647.84;4967050;28;19933;-59
2022/01/17 04:49:20;;;;;;;;;;;;;;;-144.99;99.71;52702.88;4965548;28;19926;-59
2022/01/17 04:51:46;;;;;;;;;;;;;;;-144.99;99.91;52637.66;4965851;28;19958;-58
2022/01/17 04:54:36;;;;;;;;;;;;;;;-144.99;99.50;52680.47;4965429;28;19969;-62
2022/01/17 04:57:04;;;;;;;;;;;;;;;-144.99;100.00;52709.00;4963143;28;19926;-62
2022/01/17 04:59:30;;;;;;;;;;;;;;;-144.99;99.94;52668.22;4963144;28;19947;-61
2022/01/17 05:01:57;;;;;;;;;;;;;;;-144.99;100.00;52709.00;4955474;28;19933;-61
2022/01/17 05:04:23;;;;;;;;;;;;;;;-144.99;100.00;52660.09;4966991;28;19926;-61
2022/01/17 05:06:50;;;;;;;;;;;;;;;-144.99;100.00;52684.53;4969678;28;19933;-61
2022/01/17 05:09:16;;;;;;;;;;;;;;;-144.99;99.36;52670.28;4968336;28;19926;-60
2022/01/17 05:11:43;;;;;;;;;;;;;;;-144.99;100.00;52678.44;4969196;28;19932;-61
2022/01/17 05:14:10;;;;;;;;;;;;;;;-144.99;100.00;52676.38;4969610;28;19927;-62
2022/01/17 05:16:42;;;;;;;;;;;;;;;-144.99;100.00;52676.38;4968983;28;19926;-59
2022/01/17 05:22:07;;;;;;;;;;;;;;;-144.99;100.00;52649.88;5008361;28;20334;-61
2022/01/17 05:24:33;;;;;;;;;;;;;;;-144.99;100.00;52647.84;4999753;28;20366;-62
2022/01/17 05:27:00;;;;;;;;;;;;;;;-144.99;100.00;52668.22;4986089;28;20256;-61
2022/01/17 05:29:28;;;;;;;;;;;;;;;-144.99;100.00;52615.25;4968750;28;19933;-62
2022/01/17 05:31:54;;;;;;;;;;;;;;;-144.99;100.00;52664.16;4968336;28;19933;-60
2022/01/17 05:34:20;;;;;;;;;;;;;;;-144.99;100.00;52672.31;4968415;28;19938;-62
2022/01/17 05:36:47;;;;;;;;;;;;;;;-144.99;100.00;52656.00;4968450;28;19926;-62
2022/01/17 05:39:13;;;;;;;;;;;;;;;-144.99;100.00;52668.22;4968205;28;19926;-62
2022/01/17 05:41:39;;;;;;;;;;;;;;;-144.99;100.00;52647.84;4967942;28;19926;-62
2022/01/17 05:44:06;;;;;;;;;;;;;;;-144.99;100.00;52645.81;4981469;23;20306;-61
2022/01/17 05:46:34;;;;;;;;;;;;;;;-144.99;100.00;52664.16;5034503;28;19986;-60
2022/01/17 05:49:00;;;;;;;;;;;;;;;-144.99;100.00;52682.50;4969963;28;19934;-62
2022/01/17 05:51:26;;;;;;;;;;;;;;;-144.99;100.00;52676.38;4957960;28;19934;-66
2022/01/17 05:53:53;;;;;;;;;;;;;;;-144.99;100.00;52684.53;4950873;29;19938;-67
2022/01/17 05:56:19;;;;;;;;;;;;;;;-144.99;100.00;52627.47;4951137;29;19927;-67
2022/01/17 05:58:45;;;;;;;;;;;;;;;-144.99;100.00;52651.94;4951393;28;19927;-66
2022/01/17 06:01:13;;;;;;;;;;;;;;;-144.99;100.00;52647.84;4950995;28;19934;-66
2022/01/17 06:03:41;;;;;;;;;;;;;;;-144.99;100.00;52641.72;4950955;28;20610;-67
2022/01/17 06:06:07;;;;;;;;;;;;;;;-144.99;100.00;52639.69;4265198;28;10000899;-67
2022/01/17 06:08:34;;;;;;;;;;;;;;;-144.99;100.00;52656.00;4947905;28;20381;-67
2022/01/17 06:11:00;;;;;;;;;;;;;;;-144.99;100.00;52678.44;4947889;29;19930;-66
2022/01/17 06:13:27;;;;;;;;;;;;;;;-144.99;100.00;52637.66;4948167;28;19930;-67
2022/01/17 06:15:53;;;;;;;;;;;;;;;-144.99;100.00;52651.94;4948140;28;19934;-67
2022/01/17 06:18:19;;;;;;;;;;;;;;;-144.99;100.00;52664.16;4947822;28;19931;-66
2022/01/17 06:20:47;;;;;;;;;;;;;;;-144.99;100.00;52713.09;4947323;28;19933;-68
2022/01/17 06:23:14;;;;;;;;;;;;;;;-144.99;100.00;52690.66;4947512;28;19937;-69
2022/01/17 06:25:40;;;;;;;;;;;;;;;-144.99;100.00;52676.38;4947717;28;19950;-69
2022/01/17 06:28:06;;;;;;;;;;;;;;;-144.99;100.00;52680.47;4948357;28;19961;-69
2022/01/17 06:30:33;;;;;;;;;;;;;;;-144.99;100.00;52649.88;4944166;28;20273;-67
2022/01/17 06:32:59;;;;;;;;;;;;;;;-144.99;100.00;52660.09;4938711;28;19931;-66
2022/01/17 06:35:25;;;;;;;;;;;;;;;-144.99;100.00;52643.78;4947402;29;20336;-67
2022/01/17 06:37:53;;;;;;;;;;;;;;;-144.99;100.00;52647.84;4948292;28;20398;-66
2022/01/17 06:40:20;;;;;;;;;;;;;;;-144.99;100.00;52674.34;4947525;28;19935;-67
2022/01/17 06:42:46;;;;;;;;;;;;;;;-144.99;100.00;52690.66;4947130;28;20334;-67
2022/01/17 06:45:15;;;;;;;;;;;;;;;-144.99;100.00;52625.44;4947266;28;19934;-66
2022/01/17 06:47:42;;;;;;;;;;;;;;;-144.99;100.00;52674.34;4947135;28;19930;-66
2022/01/17 06:50:09;;;;;;;;;;;;;;;-144.99;100.00;52623.38;4947059;28;20027;-66
2022/01/17 06:52:35;;;;;;;;;;;;;;;-144.99;100.00;52660.09;4947712;28;20368;-67
2022/01/17 06:55:03;;;;;;;;;;;;;;;-144.99;100.00;52651.94;4947079;28;20314;-66
2022/01/17 06:57:30;;;;;;;;;;;;;;;-144.99;100.00;52680.47;4947003;28;19996;-66
2022/01/17 06:59:56;;;;;;;;;;;;;;;-144.99;100.00;52615.25;4946382;28;19926;-67
2022/01/17 07:02:22;;;;;;;;;;;;;;;-144.99;100.00;52643.78;4947248;28;19926;-67
2022/01/17 07:04:49;;;;;;;;;;;;;;;-144.99;100.00;52711.03;4946878;28;19930;-66
2022/01/17 07:07:16;;;;;;;;;;;;;;;-144.99;100.00;52656.00;4947303;28;19930;-68
2022/01/17 07:09:42;;;;;;;;;;;;;;;-144.99;100.00;52692.69;4947294;28;20004;-66
2022/01/17 07:12:10;;;;;;;;;;;;;;;-144.99;100.00;52656.00;4947495;28;19938;-67
2022/01/17 07:14:41;;;;;;;;;;;;;;;-144.99;100.00;52680.47;4947321;28;20364;-68
2022/01/17 07:17:07;;;;;;;;;;;;;;;-144.99;100.00;52639.69;4947239;28;19941;-67
2022/01/17 07:19:34;;;;;;;;;;;;;;;-144.99;100.00;52672.31;4946454;28;19931;-67
2022/01/17 07:22:00;;;;;;;;;;;;;;;-144.99;100.00;52664.16;4945584;28;19930;-67
2022/01/17 07:24:26;;;;;;;;;;;;;;;-144.99;100.00;52674.34;4941432;29;19930;-67
2022/01/17 07:26:53;;;;;;;;;;;;;;;-144.99;100.00;52664.16;4945782;28;20288;-67
2022/01/17 07:29:21;;;;;;;;;;;;;;;-144.99;100.00;52684.53;4946813;28;19934;-67
2022/01/17 07:31:47;;;;;;;;;;;;;;;-144.99;100.00;52674.34;4947567;28;20028;-66
2022/01/17 07:34:13;;;;;;;;;;;;;;;-144.99;100.00;52623.38;4946805;28;20003;-70
2022/01/17 07:36:40;;;;;;;;;;;;;;;-144.99;100.00;52639.69;4947029;28;19937;-67
2022/01/17 07:39:06;;;;;;;;;;;;;;;-144.99;100.00;52643.78;4939280;28;19934;-69
2022/01/17 07:41:33;;;;;;;;;;;;;;;-144.99;100.00;52643.78;4940956;28;20279;-71
2022/01/17 07:44:01;;;;;;;;;;;;;;;-144.99;100.00;52680.47;4946136;28;20366;-67
2022/01/17 07:46:34;;;;;;;;;;;;;;;-144.99;100.00;52631.53;4947033;28;19980;-67
2022/01/17 07:49:10;;;;;;;;;;;;;;;-144.99;100.00;52627.47;4946135;28;19926;-66
2022/01/17 07:51:37;;;;;;;;;;;;;;;-144.99;100.00;52690.66;4946140;28;20405;-64
2022/01/17 07:54:04;;;;;;;;;;;;;;;-144.99;100.00;52631.53;4945599;28;19930;-66
2022/01/17 07:56:31;;;;;;;;;;;;;;;-144.99;100.00;52631.53;4946267;28;20402;-66
2022/01/17 07:58:57;;;;;;;;;;;;;;;-144.99;100.00;52631.53;4946304;28;19970;-66
2022/01/17 08:01:24;;;;;;;;;;;;;;;-144.99;100.00;52676.38;4946339;28;20036;-65
2022/01/17 08:03:52;;;;;;;;;;;;;;;-144.99;100.00;52639.69;4945760;28;19946;-65
2022/01/17 08:06:18;;;;;;;;;;;;;;;-144.99;100.00;52700.84;4945820;28;19927;-66
2022/01/17 08:08:44;;;;;;;;;;;;;;;-144.99;100.00;52680.47;4946071;28;20081;-67
2022/01/17 08:11:11;;;;;;;;;;;;;;;-144.99;100.00;52641.72;4946242;29;19983;-66
2022/01/17 08:13:37;;;;;;;;;;;;;;;-144.99;100.00;52647.84;4945964;29;19938;-67
2022/01/17 08:16:04;;;;;;;;;;;;;;;-144.99;100.00;52662.13;4946335;28;19930;-66
2022/01/17 08:18:31;;;;;;;;;;;;;;;-144.99;100.00;52664.16;4946120;29;19969;-66
2022/01/17 08:20:59;;;;;;;;;;;;;;;-144.99;100.00;52651.94;4946103;29;20454;-68
2022/01/17 08:23:26;;;;;;;;;;;;;;;-144.99;100.00;52656.00;4945201;29;19953;-67
2022/01/17 08:25:52;;;;;;;;;;;;;;;-144.99;100.00;52647.84;4945738;28;19938;-67
2022/01/17 08:28:18;;;;;;;;;;;;;;;-144.99;100.00;52625.44;4946594;28;19992;-66
2022/01/17 08:30:45;;;;;;;;;;;;;;;-144.99;100.00;52651.94;4946272;28;20314;-67
2022/01/17 08:33:11;;;;;;;;;;;;;;;-144.99;100.00;52643.78;4947130;28;19950;-66
2022/01/17 08:35:38;;;;;;;;;;;;;;;-144.99;100.00;52649.88;4933617;28;20406;-66
2022/01/17 08:38:05;;;;;;;;;;;;;;;-144.99;100.00;52639.69;4946308;28;19926;-66
2022/01/17 08:43:34;;;;;;;;;;;;;;;-144.99;100.00;52594.84;4948317;29;19937;-66
2022/01/17 08:46:03;;;;;;;;;;;;;;;-144.99;100.00;52647.84;4950774;28;19938;-68
2022/01/17 08:48:29;;;;;;;;;;;;;;;-144.99;100.00;52639.69;4949458;28;19937;-66
2022/01/17 08:50:56;;;;;;;;;;;;;;;-144.99;100.00;52676.38;4948790;28;20401;-67
2022/01/17 08:53:23;;;;;;;;;;;;;;;-144.99;100.00;52643.78;4948729;28;19985;-67
2022/01/17 08:55:50;;;;;;;;;;;;;;;-144.99;100.00;52668.22;4948765;28;19935;-66
2022/01/17 08:58:16;;;;;;;;;;;;;;;-144.99;100.00;52615.25;4948296;28;19965;-68
2022/01/17 09:00:43;;;;;;;;;;;;;;;-144.99;100.00;52676.38;4948692;28;19966;-68
2022/01/17 09:03:10;;;;;;;;;;;;;;;-144.99;100.00;52619.31;4948824;28;19984;-66
2022/01/17 09:05:37;;;;;;;;;;;;;;;-144.99;100.00;52631.53;4948237;28;20357;-67
2022/01/17 09:08:04;;;;;;;;;;;;;;;-144.99;100.00;52629.50;4948203;28;19934;-66
2022/01/17 09:10:32;;;;;;;;;;;;;;;-144.99;100.00;52635.63;4948053;28;19934;-66
2022/01/17 09:12:58;;;;;;;;;;;;;;;-144.99;100.00;52651.94;4948213;28;19931;-67
2022/01/17 09:15:25;;;;;;;;;;;;;;;-144.99;100.00;52656.00;4948040;28;19930;-66
2022/01/17 09:17:51;;;;;;;;;;;;;;;-144.99;100.00;52623.38;4949202;28;19937;-66
2022/01/17 09:20:17;;;;;;;;;;;;;;;-144.99;100.00;52631.53;4948722;28;20014;-67
2022/01/17 09:22:44;;;;;;;;;;;;;;;-144.99;100.00;52627.47;4949174;28;19972;-67
2022/01/17 09:25:11;;;;;;;;;;;;;;;-144.99;100.00;52656.00;4947555;28;19937;-66
2022/01/17 09:27:39;;;;;;;;;;;;;;;-144.99;100.00;52635.63;4948522;28;20032;-67
2022/01/17 09:30:07;;;;;;;;;;;;;;;-144.99;100.00;52668.22;4947811;28;20460;-67
2022/01/17 09:51:02;;;;;;;;;;;;;;;-144.99;100.00;52611.16;4976945;28;20306;-67
2022/01/17 09:53:29;;;;;;;;;;;;;;;-144.99;98.03;52639.69;4946110;28;19930;-67
2022/01/17 09:55:58;;;;;;;;;;;;;;;-144.99;96.54;52619.31;4942861;28;19934;-66
2022/01/17 09:58:26;;;;;;;;;;;;;;;-144.99;94.78;52645.81;4945690;28;19933;-66
2022/01/17 10:00:54;;;;;;;;;;;;;;;-144.99;91.54;52607.09;4947129;28;19930;-67
2022/01/17 10:03:21;;;;;;;;;;;;;;;-144.99;91.19;52635.63;4946319;28;20010;-66
2022/01/17 10:05:47;;;;;;;;;;;;;;;-144.99;91.18;52588.75;4946157;28;19966;-65
2022/01/17 10:08:25;;;;;;;;;;;;;;;-144.99;86.73;52660.09;4936869;28;10000006;-67
2022/01/17 10:10:57;;;;;;;;;;;;;;;-144.99;84.13;52584.66;4946413;29;20017;-67
2022/01/17 10:13:24;;;;;;;;;;;;;;;-144.99;81.19;52566.31;4946386;28;19953;-65
2022/01/17 10:16:04;;;;;;;;;;;;;;;-144.99;75.42;52611.16;4945896;28;19964;-66
2022/01/17 10:18:33;;;;;;;;;;;;;;;-144.99;70.32;52615.25;4946338;29;19984;-67
2022/01/17 10:21:04;;;;;;;;;;;;;;;-144.99;67.04;52550.00;4943014;28;20021;-68
2022/01/17 10:26:33;;;;;;;;;;;;;;;-144.99;63.36;52598.94;4938842;28;19933;-68
2022/01/17 10:29:17;;;;;;;;;;;;;;;-144.99;65.03;52578.53;4947022;28;20344;-66
2022/01/17 10:37:12;;;;;;;;;;;;;;;-144.99;64.61;52582.63;4946262;29;19934;-67
2022/01/17 10:39:51;;;;;;;;;;;;;;;-144.99;63.45;52629.50;4946349;28;19926;-67
2022/01/17 10:42:25;;;;;;;;;;;;;;;-144.99;65.68;52637.66;4946271;28;20403;-67
2022/01/17 10:44:51;;;;;;;;;;;;;;;-144.99;67.73;52552.03;4945748;28;19930;-66
2022/01/17 10:47:24;;;;;;;;;;;;;;;-144.99;67.07;52586.69;4946107;28;19930;-68
2022/01/17 10:49:51;;;;;;;;;;;;;;;-144.99;64.08;52586.69;4946003;28;19935;-66
2022/01/17 10:52:28;;;;;;;;;;;;;;;-144.99;63.83;52639.69;4946306;28;19930;-68
2022/01/17 10:54:57;;;;;;;;;;;;;;;-144.99;64.40;52660.09;4945693;28;19930;-67
2022/01/17 10:57:23;;;;;;;;;;;;;;;-144.99;65.73;52649.88;4945505;28;19958;-67
2022/01/17 10:59:51;;;;;;;;;;;;;;;-144.99;66.32;52627.47;4946013;28;20032;-68
2022/01/17 11:02:18;;;;;;;;;;;;;;;-144.99;67.78;52619.31;4941873;29;20031;-68
2022/01/17 11:04:49;;;;;;;;;;;;;;;-144.99;68.17;52647.84;4945564;28;20036;-67
2022/01/17 11:07:15;;;;;;;;;;;;;;;-144.99;71.36;52668.22;4943648;29;19934;-68
2022/01/17 11:09:42;;;;;;;;;;;;;;;-144.99;73.73;52692.69;4944915;28;20181;-67
2022/01/17 11:12:12;;;;;;;;;;;;;;;-144.99;74.94;52664.16;4945332;28;19935;-67
2022/01/17 11:14:38;;;;;;;;;;;;;;;-144.99;76.88;52656.00;4945278;28;19934;-67
2022/01/17 11:17:10;;;;;;;;;;;;;;;-144.99;75.41;52647.84;4945405;28;19942;-67
2022/01/17 11:22:20;;;;;;;;;;;;;;;-144.99;77.56;52674.34;4944619;29;19936;-68
2022/01/17 11:24:47;;;;;;;;;;;;;;;-144.99;80.11;52668.22;4944275;28;20187;-67
2022/01/17 11:27:15;;;;;;;;;;;;;;;-144.99;82.99;52639.69;4945446;29;19927;-69
2022/01/17 11:29:41;;;;;;;;;;;;;;;-144.99;80.08;52656.00;4945436;29;19931;-68
2022/01/17 11:32:07;;;;;;;;;;;;;;;-144.99;77.78;52686.59;4941894;28;19943;-67
2022/01/17 11:34:34;;;;;;;;;;;;;;;-144.99;76.44;52639.69;4944769;28;19926;-68
2022/01/17 11:37:00;;;;;;;;;;;;;;;-144.99;76.43;52719.19;4945829;28;20274;-67
2022/01/17 11:39:27;;;;;;;;;;;;;;;-144.99;75.38;52674.34;4945195;28;19931;-70
2022/01/17 11:41:53;;;;;;;;;;;;;;;-144.99;75.22;52700.84;4945890;28;19953;-67
2022/01/17 11:44:31;;;;;;;;;;;;;;;-144.99;74.63;52664.16;4945122;28;19935;-66
2022/01/17 11:46:59;;;;;;;;;;;;;;;-144.99;74.50;52664.16;4945633;28;19933;-67
2022/01/17 11:49:27;;;;;;;;;;;;;;;-144.99;74.04;52668.22;4945045;28;20284;-66
2022/01/17 11:51:53;;;;;;;;;;;;;;;-144.99;73.79;52651.94;4946229;28;19931;-67
2022/01/17 11:54:20;;;;;;;;;;;;;;;-144.99;73.69;52680.47;4944744;28;19981;-68
2022/01/17 11:56:50;;;;;;;;;;;;;;;-144.99;73.54;52643.78;4945871;28;20409;-66
2022/01/17 11:59:25;;;;;;;;;;;;;;;-144.99;72.37;52639.69;4945181;28;20360;-67
2022/01/17 12:02:11;;;;;;;;;;;;;;;-144.99;72.97;52686.59;4945501;28;20296;-66
2022/01/17 12:04:37;;;;;;;;;;;;;;;-144.99;71.02;52664.16;4944558;28;19949;-68
2022/01/17 12:07:03;;;;;;;;;;;;;;;-144.99;70.12;52623.38;4945113;29;19930;-68
2022/01/17 12:09:30;;;;;;;;;;;;;;;-144.99;67.63;52668.22;4944627;28;20267;-67
2022/01/17 12:12:12;;;;;;;;;;;;;;;-144.99;66.80;52641.72;4944572;28;19937;-69
2022/01/17 12:14:44;;;;;;;;;;;;;;;-144.99;66.08;52639.69;4948021;29;19953;-68
2022/01/17 12:17:27;;;;;;;;;;;;;;;-144.99;66.79;52676.38;4948652;28;19926;-67
2022/01/17 12:20:16;;;;;;;;;;;;;;;-144.99;66.04;52607.09;4947808;28;19930;-67
2022/01/17 12:22:49;;;;;;;;;;;;;;;-144.99;65.16;52664.16;4942381;29;20428;-68
2022/01/17 12:25:31;;;;;;;;;;;;;;;-144.99;63.70;52533.69;4947675;28;20430;-68
2022/01/17 12:28:13;;;;;;;;;;;;;;;-144.99;60.29;52519.44;4948766;28;19934;-68
2022/01/17 12:30:41;;;;;;;;;;;;;;;-144.99;57.26;52582.63;4947836;28;20019;-67
2022/01/17 12:33:11;;;;;;;;;;;;;;;-144.99;54.81;52521.47;4947951;28;19938;-68
2022/01/17 12:35:45;;;;;;;;;;;;;;;-144.99;52.55;52590.78;4947880;28;19934;-68
2022/01/17 12:38:14;;;;;;;;;;;;;;;-144.99;52.94;52607.09;4946688;28;20173;-67
2022/01/17 12:40:42;;;;;;;;;;;;;;;-144.99;54.68;52631.53;4948147;28;20146;-67
2022/01/17 12:43:10;;;;;;;;;;;;;;;-144.99;56.61;52635.63;4947827;28;19953;-68
2022/01/17 12:45:37;;;;;;;;;;;;;;;-144.99;58.04;52607.09;4947703;28;19961;-67
2022/01/17 12:48:06;;;;;;;;;;;;;;;-144.99;59.03;52643.78;4946588;28;20387;-69
2022/01/17 12:50:36;;;;;;;;;;;;;;;-144.99;59.90;52662.13;4951645;28;19969;-69
2022/01/17 12:53:04;;;;;;;;;;;;;;;-144.99;60.43;52696.78;4950354;29;19938;-68
2022/01/17 12:55:35;;;;;;;;;;;;;;;-144.99;61.54;52700.84;4946951;28;19930;-69
2022/01/17 12:58:01;;;;;;;;;;;;;;;-144.99;61.22;52670.28;4949672;28;19937;-69
2022/01/17 13:00:28;;;;;;;;;;;;;;;-144.99;61.48;52684.53;4949246;28;19930;-72
2022/01/17 13:02:55;;;;;;;;;;;;;;;-144.99;60.50;52651.94;4950390;28;19937;-67
2022/01/17 13:05:24;;;;;;;;;;;;;;;-144.99;60.55;52688.63;4947668;28;19931;-68
2022/01/17 13:07:50;;;;;;;;;;;;;;;-144.99;59.74;52709.00;4950875;28;19938;-67
2022/01/17 13:10:17;;;;;;;;;;;;;;;-144.99;60.00;52704.94;4949337;28;19930;-67
2022/01/17 13:12:43;;;;;;;;;;;;;;;-144.99;60.67;52692.69;4950257;28;19953;-67